Time;durP1;ratioP1;P1;durP2;ratioP2;P2;SDS_P1;SDS_P2;PMS_P1;PMS_P2;Temp;Humidity;BMP_temperature;BMP_pressure;BME280_temperature;BME280_humidity;BME280_pressure;Samples;Min_cycle;Max_cycle;Signal;HPM_P1;HPM_P2
2022/08/25 00:00:30;;;;;;;6.9;6.299999;;;;;;;16.08;71.67676;95440.91;;;;
2022/08/25 00:01:30;;;;;;;6.9;6.299999;;;;;;;16.08;71.67676;95440.91;;;;
2022/08/25 00:02:34;;;;;;;6.9;6.299999;;;;;;;16.08;71.67676;95440.91;;;;
2022/08/25 00:03:34;;;;;;;6.9;6.299999;;;;;;;16.08;71.67676;95440.91;;;;
2022/08/25 00:04:35;;;;;;;6.9;6.299999;;;;;;;16.08;71.67676;95440.91;;;;
2022/08/25 00:05:36;;;;;;;6.9;6.299999;;;;;;;16.08;71.67676;95440.91;;;;
2022/08/25 00:06:37;;;;;;;6.9;6.299999;;;;;;;16.08;71.67676;95440.91;;;;
2022/08/25 00:07:39;;;;;;;6.9;6.299999;;;;;;;16.08;71.67676;95440.91;;;;
2022/08/25 00:08:39;;;;;;;6.9;6.299999;;;;;;;16.08;71.67676;95440.91;;;;
2022/08/25 00:09:40;;;;;;;7.4;6.7;;;;;;;15.91;71.99805;95437.03;;;;
2022/08/25 00:10:41;;;;;;;7.4;6.7;;;;;;;15.91;71.99805;95437.03;;;;
2022/08/25 00:11:41;;;;;;;7.4;6.7;;;;;;;15.91;71.99805;95437.03;;;;
2022/08/25 00:12:43;;;;;;;7.4;6.7;;;;;;;15.91;71.99805;95437.03;;;;
2022/08/25 00:13:43;;;;;;;7.4;6.7;;;;;;;15.91;71.99805;95437.03;;;;
2022/08/25 00:14:47;;;;;;;7.4;6.7;;;;;;;15.91;71.99805;95437.03;;;;
2022/08/25 00:15:48;;;;;;;7.4;6.7;;;;;;;15.91;71.99805;95437.03;;;;
2022/08/25 00:16:48;;;;;;;7.4;6.7;;;;;;;15.91;71.99805;95437.03;;;;
2022/08/25 00:17:49;;;;;;;7.4;6.7;;;;;;;15.91;71.99805;95437.03;;;;
2022/08/25 00:18:50;;;;;;;7.4;6.7;;;;;;;15.91;71.99805;95437.03;;;;
2022/08/25 00:19:54;;;;;;;7.450001;6.749999;;;;;;;15.81;72.39648;95438.08;;;;
2022/08/25 00:20:54;;;;;;;7.450001;6.749999;;;;;;;15.81;72.39648;95438.08;;;;
2022/08/25 00:21:55;;;;;;;7.450001;6.749999;;;;;;;15.81;72.39648;95438.08;;;;
2022/08/25 00:22:56;;;;;;;7.450001;6.749999;;;;;;;15.81;72.39648;95438.08;;;;
2022/08/25 00:23:57;;;;;;;7.450001;6.749999;;;;;;;15.81;72.39648;95438.08;;;;
2022/08/25 00:24:58;;;;;;;7.450001;6.749999;;;;;;;15.81;72.39648;95438.08;;;;
2022/08/25 00:25:58;;;;;;;7.450001;6.749999;;;;;;;15.81;72.39648;95438.08;;;;
2022/08/25 00:27:00;;;;;;;7.450001;6.749999;;;;;;;15.81;72.39648;95438.08;;;;
2022/08/25 00:28:01;;;;;;;7.450001;6.749999;;;;;;;15.81;72.39648;95438.08;;;;
2022/08/25 00:29:02;;;;;;;7.450001;6.749999;;;;;;;15.81;72.39648;95438.08;;;;
2022/08/25 00:30:03;;;;;;;7.95;7.149999;;;;;;;15.66;72.75195;95433.94;;;;
2022/08/25 00:31:05;;;;;;;7.95;7.149999;;;;;;;15.66;72.75195;95433.94;;;;
2022/08/25 00:32:09;;;;;;;7.95;7.149999;;;;;;;15.66;72.75195;95433.94;;;;
2022/08/25 00:33:10;;;;;;;7.95;7.149999;;;;;;;15.66;72.75195;95433.94;;;;
2022/08/25 00:34:11;;;;;;;7.95;7.149999;;;;;;;15.66;72.75195;95433.94;;;;
2022/08/25 00:35:16;;;;;;;7.95;7.149999;;;;;;;15.66;72.75195;95433.94;;;;
2022/08/25 00:36:17;;;;;;;7.95;7.149999;;;;;;;15.66;72.75195;95433.94;;;;
2022/08/25 00:37:19;;;;;;;7.95;7.149999;;;;;;;15.66;72.75195;95433.94;;;;
2022/08/25 00:38:19;;;;;;;7.95;7.149999;;;;;;;15.66;72.75195;95433.94;;;;
2022/08/25 00:39:20;;;;;;;7.95;7.149999;;;;;;;15.66;72.75195;95433.94;;;;
2022/08/25 00:40:23;;;;;;;7.95;7.149999;;;;;;;15.66;72.75195;95433.94;;;;
2022/08/25 00:41:25;;;;;;;7.599999;6.900001;;;;;;;15.57;73.20508;95442.83;;;;
2022/08/25 00:42:26;;;;;;;7.599999;6.900001;;;;;;;15.57;73.20508;95442.83;;;;
2022/08/25 00:43:26;;;;;;;7.599999;6.900001;;;;;;;15.57;73.20508;95442.83;;;;
2022/08/25 00:44:31;;;;;;;7.599999;6.900001;;;;;;;15.57;73.20508;95442.83;;;;
2022/08/25 00:45:32;;;;;;;7.599999;6.900001;;;;;;;15.57;73.20508;95442.83;;;;
2022/08/25 00:46:34;;;;;;;7.599999;6.900001;;;;;;;15.57;73.20508;95442.83;;;;
2022/08/25 00:47:39;;;;;;;7.599999;6.900001;;;;;;;15.57;73.20508;95442.83;;;;
2022/08/25 00:48:39;;;;;;;7.599999;6.900001;;;;;;;15.57;73.20508;95442.83;;;;
2022/08/25 00:49:42;;;;;;;7.599999;6.900001;;;;;;;15.57;73.20508;95442.83;;;;
2022/08/25 00:50:47;;;;;;;7.599999;6.900001;;;;;;;15.57;73.20508;95442.83;;;;
2022/08/25 00:51:47;;;;;;;7.8;7.05;;;;;;;15.41;73.50488;95430.69;;;;
2022/08/25 00:52:51;;;;;;;7.8;7.05;;;;;;;15.41;73.50488;95430.69;;;;
2022/08/25 00:53:55;;;;;;;7.8;7.05;;;;;;;15.41;73.50488;95430.69;;;;
2022/08/25 00:54:55;;;;;;;7.8;7.05;;;;;;;15.41;73.50488;95430.69;;;;
2022/08/25 00:55:59;;;;;;;7.8;7.05;;;;;;;15.41;73.50488;95430.69;;;;
2022/08/25 00:57:00;;;;;;;7.8;7.05;;;;;;;15.41;73.50488;95430.69;;;;
2022/08/25 00:58:03;;;;;;;7.8;7.05;;;;;;;15.41;73.50488;95430.69;;;;
2022/08/25 00:59:07;;;;;;;7.8;7.05;;;;;;;15.41;73.50488;95430.69;;;;
2022/08/25 01:00:07;;;;;;;7.8;7.05;;;;;;;15.41;73.50488;95430.69;;;;
2022/08/25 01:01:13;;;;;;;7.8;7.05;;;;;;;15.41;73.50488;95430.69;;;;
2022/08/25 01:02:14;;;;;;;7.75;6.400001;;;;;;;15.34;73.85254;95427.31;;;;
2022/08/25 01:03:16;;;;;;;7.75;6.400001;;;;;;;15.34;73.85254;95427.31;;;;
2022/08/25 01:04:18;;;;;;;7.75;6.400001;;;;;;;15.34;73.85254;95427.31;;;;
2022/08/25 01:05:20;;;;;;;7.75;6.400001;;;;;;;15.34;73.85254;95427.31;;;;
2022/08/25 01:06:21;;;;;;;7.75;6.400001;;;;;;;15.34;73.85254;95427.31;;;;
2022/08/25 01:07:22;;;;;;;7.75;6.400001;;;;;;;15.34;73.85254;95427.31;;;;
2022/08/25 01:08:25;;;;;;;7.75;6.400001;;;;;;;15.34;73.85254;95427.31;;;;
2022/08/25 01:09:30;;;;;;;7.75;6.400001;;;;;;;15.34;73.85254;95427.31;;;;
2022/08/25 01:10:31;;;;;;;7.75;6.400001;;;;;;;15.34;73.85254;95427.31;;;;
2022/08/25 01:11:34;;;;;;;7.75;6.400001;;;;;;;15.34;73.85254;95427.31;;;;
2022/08/25 01:12:36;;;;;;;7.75;6.400001;;;;;;;15.34;73.85254;95427.31;;;;
2022/08/25 01:13:36;;;;;;;6.55;5.95;;;;;;;15.19;74.09961;95424.89;;;;
2022/08/25 01:14:40;;;;;;;6.55;5.95;;;;;;;15.19;74.09961;95424.89;;;;
2022/08/25 01:15:44;;;;;;;6.55;5.95;;;;;;;15.19;74.09961;95424.89;;;;
2022/08/25 01:16:46;;;;;;;6.55;5.95;;;;;;;15.19;74.09961;95424.89;;;;
2022/08/25 01:17:47;;;;;;;6.55;5.95;;;;;;;15.19;74.09961;95424.89;;;;
2022/08/25 01:18:51;;;;;;;6.55;5.95;;;;;;;15.19;74.09961;95424.89;;;;
2022/08/25 01:19:54;;;;;;;6.55;5.95;;;;;;;15.19;74.09961;95424.89;;;;
2022/08/25 01:20:55;;;;;;;6.55;5.95;;;;;;;15.19;74.09961;95424.89;;;;
2022/08/25 01:21:58;;;;;;;6.55;5.95;;;;;;;15.19;74.09961;95424.89;;;;
2022/08/25 01:22:59;;;;;;;6.55;5.95;;;;;;;15.19;74.09961;95424.89;;;;
2022/08/25 01:24:00;;;;;;;6.749999;6.050001;;;;;;;15.11;74.34668;95421.26;;;;
2022/08/25 01:25:01;;;;;;;6.749999;6.050001;;;;;;;15.11;74.34668;95421.26;;;;
2022/08/25 01:26:12;;;;;;;6.749999;6.050001;;;;;;;15.11;74.34668;95421.26;;;;
2022/08/25 01:27:17;;;;;;;6.749999;6.050001;;;;;;;15.11;74.34668;95421.26;;;;
2022/08/25 01:28:17;;;;;;;6.749999;6.050001;;;;;;;15.11;74.34668;95421.26;;;;
2022/08/25 01:29:20;;;;;;;6.749999;6.050001;;;;;;;15.11;74.34668;95421.26;;;;
2022/08/25 01:30:20;;;;;;;6.749999;6.050001;;;;;;;15.11;74.34668;95421.26;;;;
2022/08/25 01:31:22;;;;;;;6.749999;6.050001;;;;;;;15.11;74.34668;95421.26;;;;
2022/08/25 01:32:22;;;;;;;6.749999;6.050001;;;;;;;15.11;74.34668;95421.26;;;;
2022/08/25 01:33:23;;;;;;;6.749999;6.050001;;;;;;;15.11;74.34668;95421.26;;;;
2022/08/25 01:34:24;;;;;;;6.3;5.7;;;;;;;14.94;74.54688;95420.37;;;;
2022/08/25 01:35:28;;;;;;;6.3;5.7;;;;;;;14.94;74.54688;95420.37;;;;
2022/08/25 01:36:28;;;;;;;6.3;5.7;;;;;;;14.94;74.54688;95420.37;;;;
2022/08/25 01:37:29;;;;;;;6.3;5.7;;;;;;;14.94;74.54688;95420.37;;;;
2022/08/25 01:38:33;;;;;;;6.3;5.7;;;;;;;14.94;74.54688;95420.37;;;;
2022/08/25 01:39:35;;;;;;;6.3;5.7;;;;;;;14.94;74.54688;95420.37;;;;
2022/08/25 01:40:36;;;;;;;6.3;5.7;;;;;;;14.94;74.54688;95420.37;;;;
2022/08/25 01:41:37;;;;;;;6.3;5.7;;;;;;;14.94;74.54688;95420.37;;;;
2022/08/25 01:42:48;;;;;;;6.3;5.7;;;;;;;14.94;74.54688;95420.37;;;;
2022/08/25 01:43:56;;;;;;;6.3;5.7;;;;;;;14.94;74.54688;95420.37;;;;
2022/08/25 01:44:57;;;;;;;6.55;5.8;;;;;;;14.85;74.79297;95417.26;;;;
2022/08/25 01:45:58;;;;;;;6.55;5.8;;;;;;;14.85;74.79297;95417.26;;;;
2022/08/25 01:46:58;;;;;;;6.55;5.8;;;;;;;14.85;74.79297;95417.26;;;;
2022/08/25 01:47:59;;;;;;;6.55;5.8;;;;;;;14.85;74.79297;95417.26;;;;
2022/08/25 01:49:00;;;;;;;6.55;5.8;;;;;;;14.85;74.79297;95417.26;;;;
2022/08/25 01:50:03;;;;;;;6.55;5.8;;;;;;;14.85;74.79297;95417.26;;;;
2022/08/25 01:51:05;;;;;;;6.55;5.8;;;;;;;14.85;74.79297;95417.26;;;;
2022/08/25 01:52:05;;;;;;;6.55;5.8;;;;;;;14.85;74.79297;95417.26;;;;
2022/08/25 01:53:11;;;;;;;6.55;5.8;;;;;;;14.85;74.79297;95417.26;;;;
2022/08/25 01:54:17;;;;;;;6.55;5.8;;;;;;;14.85;74.79297;95417.26;;;;
2022/08/25 01:55:18;;;;;;;6.55;5.8;;;;;;;14.85;74.79297;95417.26;;;;
2022/08/25 01:56:19;;;;;;;6.8;6.2;;;;;;;14.68;74.93848;95410.13;;;;
2022/08/25 01:57:21;;;;;;;6.8;6.2;;;;;;;14.68;74.93848;95410.13;;;;
2022/08/25 01:58:21;;;;;;;6.8;6.2;;;;;;;14.68;74.93848;95410.13;;;;
2022/08/25 01:59:25;;;;;;;6.8;6.2;;;;;;;14.68;74.93848;95410.13;;;;
2022/08/25 02:00:26;;;;;;;6.8;6.2;;;;;;;14.68;74.93848;95410.13;;;;
2022/08/25 02:01:26;;;;;;;6.8;6.2;;;;;;;14.68;74.93848;95410.13;;;;
2022/08/25 02:02:27;;;;;;;6.8;6.2;;;;;;;14.68;74.93848;95410.13;;;;
2022/08/25 02:03:27;;;;;;;6.8;6.2;;;;;;;14.68;74.93848;95410.13;;;;
2022/08/25 02:04:31;;;;;;;6.8;6.2;;;;;;;14.68;74.93848;95410.13;;;;
2022/08/25 02:05:32;;;;;;;6.8;6.2;;;;;;;14.68;74.93848;95410.13;;;;
2022/08/25 02:06:32;;;;;;;6.6;5.999999;;;;;;;14.59;75.16113;95406.73;;;;
2022/08/25 02:07:34;;;;;;;6.6;5.999999;;;;;;;14.59;75.16113;95406.73;;;;
2022/08/25 02:08:35;;;;;;;6.6;5.999999;;;;;;;14.59;75.16113;95406.73;;;;
2022/08/25 02:09:36;;;;;;;6.6;5.999999;;;;;;;14.59;75.16113;95406.73;;;;
2022/08/25 02:10:37;;;;;;;6.6;5.999999;;;;;;;14.59;75.16113;95406.73;;;;
2022/08/25 02:11:39;;;;;;;6.6;5.999999;;;;;;;14.59;75.16113;95406.73;;;;
2022/08/25 02:12:43;;;;;;;6.6;5.999999;;;;;;;14.59;75.16113;95406.73;;;;
2022/08/25 02:13:44;;;;;;;6.6;5.999999;;;;;;;14.59;75.16113;95406.73;;;;
2022/08/25 02:14:44;;;;;;;6.6;5.999999;;;;;;;14.59;75.16113;95406.73;;;;
2022/08/25 02:15:45;;;;;;;6.6;5.999999;;;;;;;14.59;75.16113;95406.73;;;;
2022/08/25 02:16:50;;;;;;;6.500001;5.9;;;;;;;14.46;75.41016;95408.31;;;;
2022/08/25 02:17:53;;;;;;;6.500001;5.9;;;;;;;14.46;75.41016;95408.31;;;;
2022/08/25 02:18:53;;;;;;;6.500001;5.9;;;;;;;14.46;75.41016;95408.31;;;;
2022/08/25 02:19:55;;;;;;;6.500001;5.9;;;;;;;14.46;75.41016;95408.31;;;;
2022/08/25 02:20:56;;;;;;;6.500001;5.9;;;;;;;14.46;75.41016;95408.31;;;;
2022/08/25 02:21:56;;;;;;;6.500001;5.9;;;;;;;14.46;75.41016;95408.31;;;;
2022/08/25 02:22:58;;;;;;;6.500001;5.9;;;;;;;14.46;75.41016;95408.31;;;;
2022/08/25 02:23:58;;;;;;;6.500001;5.9;;;;;;;14.46;75.41016;95408.31;;;;
2022/08/25 02:24:59;;;;;;;6.500001;5.9;;;;;;;14.46;75.41016;95408.31;;;;
2022/08/25 02:25:59;;;;;;;6.500001;5.9;;;;;;;14.46;75.41016;95408.31;;;;
2022/08/25 02:27:00;;;;;;;6.500001;5.9;;;;;;;14.46;75.41016;95408.31;;;;
2022/08/25 02:28:01;;;;;;;6.950001;6.249999;;;;;;;14.39;75.65918;95411.47;;;;
2022/08/25 02:29:02;;;;;;;6.950001;6.249999;;;;;;;14.39;75.65918;95411.47;;;;
2022/08/25 02:30:04;;;;;;;6.950001;6.249999;;;;;;;14.39;75.65918;95411.47;;;;
2022/08/25 02:31:05;;;;;;;6.950001;6.249999;;;;;;;14.39;75.65918;95411.47;;;;
2022/08/25 02:32:05;;;;;;;6.950001;6.249999;;;;;;;14.39;75.65918;95411.47;;;;
2022/08/25 02:33:07;;;;;;;6.950001;6.249999;;;;;;;14.39;75.65918;95411.47;;;;
2022/08/25 02:34:08;;;;;;;6.950001;6.249999;;;;;;;14.39;75.65918;95411.47;;;;
2022/08/25 02:35:10;;;;;;;6.950001;6.249999;;;;;;;14.39;75.65918;95411.47;;;;
2022/08/25 02:36:11;;;;;;;6.950001;6.249999;;;;;;;14.39;75.65918;95411.47;;;;
2022/08/25 02:37:12;;;;;;;6.950001;6.249999;;;;;;;14.39;75.65918;95411.47;;;;
2022/08/25 02:38:13;;;;;;;7.1;6.4;;;;;;;14.25;75.80859;95409.27;;;;
2022/08/25 02:39:13;;;;;;;7.1;6.4;;;;;;;14.25;75.80859;95409.27;;;;
2022/08/25 02:40:14;;;;;;;7.1;6.4;;;;;;;14.25;75.80859;95409.27;;;;
2022/08/25 02:41:15;;;;;;;7.1;6.4;;;;;;;14.25;75.80859;95409.27;;;;
2022/08/25 02:42:20;;;;;;;7.1;6.4;;;;;;;14.25;75.80859;95409.27;;;;
2022/08/25 02:43:21;;;;;;;7.1;6.4;;;;;;;14.25;75.80859;95409.27;;;;
2022/08/25 02:44:22;;;;;;;7.1;6.4;;;;;;;14.25;75.80859;95409.27;;;;
2022/08/25 02:45:22;;;;;;;7.1;6.4;;;;;;;14.25;75.80859;95409.27;;;;
2022/08/25 02:46:23;;;;;;;7.1;6.4;;;;;;;14.25;75.80859;95409.27;;;;
2022/08/25 02:47:24;;;;;;;7.1;6.4;;;;;;;14.25;75.80859;95409.27;;;;
2022/08/25 02:48:25;;;;;;;7.1;6.4;;;;;;;14.25;75.80859;95409.27;;;;
2022/08/25 02:49:27;;;;;;;6.599999;6;;;;;;;14.18;75.99121;95401.51;;;;
2022/08/25 02:50:27;;;;;;;6.599999;6;;;;;;;14.18;75.99121;95401.51;;;;
2022/08/25 02:51:28;;;;;;;6.599999;6;;;;;;;14.18;75.99121;95401.51;;;;
2022/08/25 02:52:29;;;;;;;6.599999;6;;;;;;;14.18;75.99121;95401.51;;;;
2022/08/25 02:53:30;;;;;;;6.599999;6;;;;;;;14.18;75.99121;95401.51;;;;
2022/08/25 02:54:30;;;;;;;6.599999;6;;;;;;;14.18;75.99121;95401.51;;;;
2022/08/25 02:55:30;;;;;;;6.599999;6;;;;;;;14.18;75.99121;95401.51;;;;
2022/08/25 02:56:31;;;;;;;6.599999;6;;;;;;;14.18;75.99121;95401.51;;;;
2022/08/25 02:57:32;;;;;;;6.599999;6;;;;;;;14.18;75.99121;95401.51;;;;
2022/08/25 02:58:32;;;;;;;6.599999;6;;;;;;;14.18;75.99121;95401.51;;;;
2022/08/25 02:59:34;;;;;;;6.700001;6.099999;;;;;;;14.05;76.17383;95392.33;;;;
2022/08/25 03:00:35;;;;;;;6.700001;6.099999;;;;;;;14.05;76.17383;95392.33;;;;
2022/08/25 03:01:36;;;;;;;6.700001;6.099999;;;;;;;14.05;76.17383;95392.33;;;;
2022/08/25 03:02:36;;;;;;;6.700001;6.099999;;;;;;;14.05;76.17383;95392.33;;;;
2022/08/25 03:03:39;;;;;;;6.700001;6.099999;;;;;;;14.05;76.17383;95392.33;;;;
2022/08/25 03:04:40;;;;;;;6.700001;6.099999;;;;;;;14.05;76.17383;95392.33;;;;
2022/08/25 03:05:41;;;;;;;6.700001;6.099999;;;;;;;14.05;76.17383;95392.33;;;;
2022/08/25 03:06:42;;;;;;;6.700001;6.099999;;;;;;;14.05;76.17383;95392.33;;;;
2022/08/25 03:07:43;;;;;;;6.700001;6.099999;;;;;;;14.05;76.17383;95392.33;;;;
2022/08/25 03:08:44;;;;;;;6.700001;6.099999;;;;;;;14.05;76.17383;95392.33;;;;
2022/08/25 03:09:44;;;;;;;6.700001;6.099999;;;;;;;14.05;76.17383;95392.33;;;;
2022/08/25 03:10:46;;;;;;;6.7;6.050001;;;;;;;14.01;76.34082;95390.75;;;;
2022/08/25 03:11:46;;;;;;;6.7;6.050001;;;;;;;14.01;76.34082;95390.75;;;;
2022/08/25 03:12:47;;;;;;;6.7;6.050001;;;;;;;14.01;76.34082;95390.75;;;;
2022/08/25 03:13:49;;;;;;;6.7;6.050001;;;;;;;14.01;76.34082;95390.75;;;;
2022/08/25 03:14:50;;;;;;;6.7;6.050001;;;;;;;14.01;76.34082;95390.75;;;;
2022/08/25 03:15:51;;;;;;;6.7;6.050001;;;;;;;14.01;76.34082;95390.75;;;;
2022/08/25 03:16:51;;;;;;;6.7;6.050001;;;;;;;14.01;76.34082;95390.75;;;;
2022/08/25 03:17:52;;;;;;;6.7;6.050001;;;;;;;14.01;76.34082;95390.75;;;;
2022/08/25 03:18:54;;;;;;;6.7;6.050001;;;;;;;14.01;76.34082;95390.75;;;;
2022/08/25 03:19:55;;;;;;;6.7;6.050001;;;;;;;14.01;76.34082;95390.75;;;;
2022/08/25 03:20:56;;;;;;;6.75;6.1;;;;;;;13.9;76.45313;95392.38;;;;
2022/08/25 03:21:58;;;;;;;6.75;6.1;;;;;;;13.9;76.45313;95392.38;;;;
2022/08/25 03:22:58;;;;;;;6.75;6.1;;;;;;;13.9;76.45313;95392.38;;;;
2022/08/25 03:23:59;;;;;;;6.75;6.1;;;;;;;13.9;76.45313;95392.38;;;;
2022/08/25 03:26:52;;;;;;;6.75;6.1;;;;;;;13.9;76.45313;95392.38;;;;
2022/08/25 03:27:53;;;;;;;6.75;6.1;;;;;;;13.9;76.45313;95392.38;;;;
2022/08/25 03:28:54;;;;;;;6.75;6.1;;;;;;;13.9;76.45313;95392.38;;;;
2022/08/25 03:29:55;;;;;;;6.75;6.1;;;;;;;13.9;76.45313;95392.38;;;;
2022/08/25 03:30:56;;;;;;;6.75;6.1;;;;;;;13.9;76.45313;95392.38;;;;
2022/08/25 03:31:56;;;;;;;6.65;6.050001;;;;;;;13.84;76.56152;95387.16;;;;
2022/08/25 03:32:58;;;;;;;6.65;6.050001;;;;;;;13.84;76.56152;95387.16;;;;
2022/08/25 03:33:59;;;;;;;6.65;6.050001;;;;;;;13.84;76.56152;95387.16;;;;
2022/08/25 03:35:01;;;;;;;6.65;6.050001;;;;;;;13.84;76.56152;95387.16;;;;
2022/08/25 03:36:02;;;;;;;6.65;6.050001;;;;;;;13.84;76.56152;95387.16;;;;
2022/08/25 03:37:05;;;;;;;6.65;6.050001;;;;;;;13.84;76.56152;95387.16;;;;
2022/08/25 03:38:06;;;;;;;6.65;6.050001;;;;;;;13.84;76.56152;95387.16;;;;
2022/08/25 03:39:07;;;;;;;6.65;6.050001;;;;;;;13.84;76.56152;95387.16;;;;
2022/08/25 03:40:08;;;;;;;6.65;6.050001;;;;;;;13.84;76.56152;95387.16;;;;
2022/08/25 03:41:13;;;;;;;6.65;6.050001;;;;;;;13.84;76.56152;95387.16;;;;
2022/08/25 03:42:16;;;;;;;7.299999;6.6;;;;;;;13.72;76.69141;95369.97;;;;
2022/08/25 03:43:17;;;;;;;7.299999;6.6;;;;;;;13.72;76.69141;95369.97;;;;
2022/08/25 03:44:18;;;;;;;7.299999;6.6;;;;;;;13.72;76.69141;95369.97;;;;
2022/08/25 03:45:21;;;;;;;7.299999;6.6;;;;;;;13.72;76.69141;95369.97;;;;
2022/08/25 03:46:23;;;;;;;7.299999;6.6;;;;;;;13.72;76.69141;95369.97;;;;
2022/08/25 03:47:28;;;;;;;7.299999;6.6;;;;;;;13.72;76.69141;95369.97;;;;
2022/08/25 03:48:28;;;;;;;7.299999;6.6;;;;;;;13.72;76.69141;95369.97;;;;
2022/08/25 03:49:30;;;;;;;7.299999;6.6;;;;;;;13.72;76.69141;95369.97;;;;
2022/08/25 03:50:30;;;;;;;7.299999;6.6;;;;;;;13.72;76.69141;95369.97;;;;
2022/08/25 03:51:31;;;;;;;7.299999;6.6;;;;;;;13.72;76.69141;95369.97;;;;
2022/08/25 03:52:33;;;;;;;7.299999;6.6;;;;;;;13.72;76.69141;95369.97;;;;
2022/08/25 03:53:34;;;;;;;8.499999;6.95;;;;;;;13.65;76.875;95371.81;;;;
2022/08/25 03:54:35;;;;;;;8.499999;6.95;;;;;;;13.65;76.875;95371.81;;;;
2022/08/25 03:55:35;;;;;;;8.499999;6.95;;;;;;;13.65;76.875;95371.81;;;;
2022/08/25 03:56:37;;;;;;;8.499999;6.95;;;;;;;13.65;76.875;95371.81;;;;
2022/08/25 03:57:37;;;;;;;8.499999;6.95;;;;;;;13.65;76.875;95371.81;;;;
2022/08/25 03:58:38;;;;;;;8.499999;6.95;;;;;;;13.65;76.875;95371.81;;;;
2022/08/25 03:59:39;;;;;;;8.499999;6.95;;;;;;;13.65;76.875;95371.81;;;;
2022/08/25 04:00:39;;;;;;;8.499999;6.95;;;;;;;13.65;76.875;95371.81;;;;
2022/08/25 04:01:40;;;;;;;8.499999;6.95;;;;;;;13.65;76.875;95371.81;;;;
2022/08/25 04:02:44;;;;;;;8.499999;6.95;;;;;;;13.65;76.875;95371.81;;;;
2022/08/25 04:03:45;;;;;;;7.149999;6.45;;;;;;;13.53;76.9834;95378.14;;;;
2022/08/25 04:04:46;;;;;;;7.149999;6.45;;;;;;;13.53;76.9834;95378.14;;;;
2022/08/25 04:05:46;;;;;;;7.149999;6.45;;;;;;;13.53;76.9834;95378.14;;;;
2022/08/25 04:06:47;;;;;;;7.149999;6.45;;;;;;;13.53;76.9834;95378.14;;;;
2022/08/25 04:07:47;;;;;;;7.149999;6.45;;;;;;;13.53;76.9834;95378.14;;;;
2022/08/25 04:08:51;;;;;;;7.149999;6.45;;;;;;;13.53;76.9834;95378.14;;;;
2022/08/25 04:09:52;;;;;;;7.149999;6.45;;;;;;;13.53;76.9834;95378.14;;;;
2022/08/25 04:10:53;;;;;;;7.149999;6.45;;;;;;;13.53;76.9834;95378.14;;;;
2022/08/25 04:11:53;;;;;;;7.149999;6.45;;;;;;;13.53;76.9834;95378.14;;;;
2022/08/25 04:12:54;;;;;;;7.149999;6.45;;;;;;;13.53;76.9834;95378.14;;;;
2022/08/25 04:13:55;;;;;;;7.149999;6.45;;;;;;;13.53;76.9834;95378.14;;;;
2022/08/25 04:14:57;;;;;;;7.600001;6.799999;;;;;;;13.49;77.15039;95378.3;;;;
2022/08/25 04:15:58;;;;;;;7.600001;6.799999;;;;;;;13.49;77.15039;95378.3;;;;
2022/08/25 04:16:58;;;;;;;7.600001;6.799999;;;;;;;13.49;77.15039;95378.3;;;;
2022/08/25 04:17:59;;;;;;;7.600001;6.799999;;;;;;;13.49;77.15039;95378.3;;;;
2022/08/25 04:19:00;;;;;;;7.600001;6.799999;;;;;;;13.49;77.15039;95378.3;;;;
2022/08/25 04:20:03;;;;;;;7.600001;6.799999;;;;;;;13.49;77.15039;95378.3;;;;
2022/08/25 04:21:05;;;;;;;7.600001;6.799999;;;;;;;13.49;77.15039;95378.3;;;;
2022/08/25 04:22:08;;;;;;;7.600001;6.799999;;;;;;;13.49;77.15039;95378.3;;;;
2022/08/25 04:23:10;;;;;;;7.600001;6.799999;;;;;;;13.49;77.15039;95378.3;;;;
2022/08/25 04:24:10;;;;;;;7.600001;6.799999;;;;;;;13.49;77.15039;95378.3;;;;
2022/08/25 04:25:12;;;;;;;7.65;6.950001;;;;;;;13.41;77.24414;95390.06;;;;
2022/08/25 04:26:12;;;;;;;7.65;6.950001;;;;;;;13.41;77.24414;95390.06;;;;
2022/08/25 04:27:15;;;;;;;7.65;6.950001;;;;;;;13.41;77.24414;95390.06;;;;
2022/08/25 04:28:15;;;;;;;7.65;6.950001;;;;;;;13.41;77.24414;95390.06;;;;
2022/08/25 04:29:16;;;;;;;7.65;6.950001;;;;;;;13.41;77.24414;95390.06;;;;
2022/08/25 04:30:19;;;;;;;7.65;6.950001;;;;;;;13.41;77.24414;95390.06;;;;
2022/08/25 04:31:20;;;;;;;7.65;6.950001;;;;;;;13.41;77.24414;95390.06;;;;
2022/08/25 04:32:21;;;;;;;7.65;6.950001;;;;;;;13.41;77.24414;95390.06;;;;
2022/08/25 04:33:22;;;;;;;7.65;6.950001;;;;;;;13.41;77.24414;95390.06;;;;
2022/08/25 04:34:22;;;;;;;7.65;6.950001;;;;;;;13.41;77.24414;95390.06;;;;
2022/08/25 04:35:25;;;;;;;8.85;7.95;;;;;;;13.42;77.33203;95389.54;;;;
2022/08/25 04:36:26;;;;;;;8.85;7.95;;;;;;;13.42;77.33203;95389.54;;;;
2022/08/25 04:37:27;;;;;;;8.85;7.95;;;;;;;13.42;77.33203;95389.54;;;;
2022/08/25 04:38:27;;;;;;;8.85;7.95;;;;;;;13.42;77.33203;95389.54;;;;
2022/08/25 04:39:28;;;;;;;8.85;7.95;;;;;;;13.42;77.33203;95389.54;;;;
2022/08/25 04:40:29;;;;;;;8.85;7.95;;;;;;;13.42;77.33203;95389.54;;;;
2022/08/25 04:41:30;;;;;;;8.85;7.95;;;;;;;13.42;77.33203;95389.54;;;;
2022/08/25 04:42:30;;;;;;;8.85;7.95;;;;;;;13.42;77.33203;95389.54;;;;
2022/08/25 04:43:31;;;;;;;8.85;7.95;;;;;;;13.42;77.33203;95389.54;;;;
2022/08/25 04:44:33;;;;;;;8.85;7.95;;;;;;;13.42;77.33203;95389.54;;;;
2022/08/25 04:45:34;;;;;;;8.85;7.95;;;;;;;13.42;77.33203;95389.54;;;;
2022/08/25 04:46:36;;;;;;;9.849999;8.700001;;;;;;;13.38;77.36816;95386.13;;;;
2022/08/25 04:47:37;;;;;;;9.849999;8.700001;;;;;;;13.38;77.36816;95386.13;;;;
2022/08/25 04:48:38;;;;;;;9.849999;8.700001;;;;;;;13.38;77.36816;95386.13;;;;
2022/08/25 04:49:40;;;;;;;9.849999;8.700001;;;;;;;13.38;77.36816;95386.13;;;;
2022/08/25 04:50:40;;;;;;;9.849999;8.700001;;;;;;;13.38;77.36816;95386.13;;;;
2022/08/25 04:51:41;;;;;;;9.849999;8.700001;;;;;;;13.38;77.36816;95386.13;;;;
2022/08/25 04:52:41;;;;;;;9.849999;8.700001;;;;;;;13.38;77.36816;95386.13;;;;
2022/08/25 04:53:42;;;;;;;9.849999;8.700001;;;;;;;13.38;77.36816;95386.13;;;;
2022/08/25 04:54:42;;;;;;;9.849999;8.700001;;;;;;;13.38;77.36816;95386.13;;;;
2022/08/25 04:55:44;;;;;;;9.849999;8.700001;;;;;;;13.38;77.36816;95386.13;;;;
2022/08/25 04:56:47;;;;;;;10.8;8.9;;;;;;;13.49;77.43164;95383.61;;;;
2022/08/25 04:57:48;;;;;;;10.8;8.9;;;;;;;13.49;77.43164;95383.61;;;;
2022/08/25 04:58:49;;;;;;;10.8;8.9;;;;;;;13.49;77.43164;95383.61;;;;
2022/08/25 04:59:50;;;;;;;10.8;8.9;;;;;;;13.49;77.43164;95383.61;;;;
2022/08/25 05:00:51;;;;;;;10.8;8.9;;;;;;;13.49;77.43164;95383.61;;;;
2022/08/25 05:01:52;;;;;;;10.8;8.9;;;;;;;13.49;77.43164;95383.61;;;;
2022/08/25 05:02:52;;;;;;;10.8;8.9;;;;;;;13.49;77.43164;95383.61;;;;
2022/08/25 05:03:53;;;;;;;10.8;8.9;;;;;;;13.49;77.43164;95383.61;;;;
2022/08/25 05:04:55;;;;;;;10.8;8.9;;;;;;;13.49;77.43164;95383.61;;;;
2022/08/25 05:05:56;;;;;;;10.8;8.9;;;;;;;13.49;77.43164;95383.61;;;;
2022/08/25 05:06:56;;;;;;;10.8;8.9;;;;;;;13.49;77.43164;95383.61;;;;
2022/08/25 05:07:58;;;;;;;10.15;8.299998;;;;;;;13.64;77.41504;95380.42;;;;
2022/08/25 05:08:58;;;;;;;10.15;8.299998;;;;;;;13.64;77.41504;95380.42;;;;
2022/08/25 05:10:00;;;;;;;10.15;8.299998;;;;;;;13.64;77.41504;95380.42;;;;
2022/08/25 05:11:01;;;;;;;10.15;8.299998;;;;;;;13.64;77.41504;95380.42;;;;
2022/08/25 05:12:04;;;;;;;10.15;8.299998;;;;;;;13.64;77.41504;95380.42;;;;
2022/08/25 05:13:05;;;;;;;10.15;8.299998;;;;;;;13.64;77.41504;95380.42;;;;
2022/08/25 05:14:10;;;;;;;10.15;8.299998;;;;;;;13.64;77.41504;95380.42;;;;
2022/08/25 05:16:16;;;;;;;10.15;8.299998;;;;;;;13.64;77.41504;95380.42;;;;
2022/08/25 05:17:17;;;;;;;10.15;8.299998;;;;;;;13.64;77.41504;95380.42;;;;
2022/08/25 05:18:18;;;;;;;10.3;8.9;;;;;;;13.9;77.33105;95371.11;;;;
2022/08/25 05:19:22;;;;;;;10.3;8.9;;;;;;;13.9;77.33105;95371.11;;;;
2022/08/25 05:20:23;;;;;;;10.3;8.9;;;;;;;13.9;77.33105;95371.11;;;;
2022/08/25 05:21:24;;;;;;;10.3;8.9;;;;;;;13.9;77.33105;95371.11;;;;
2022/08/25 05:22:26;;;;;;;10.3;8.9;;;;;;;13.9;77.33105;95371.11;;;;
2022/08/25 05:23:27;;;;;;;10.3;8.9;;;;;;;13.9;77.33105;95371.11;;;;
2022/08/25 05:24:28;;;;;;;10.3;8.9;;;;;;;13.9;77.33105;95371.11;;;;
2022/08/25 05:25:29;;;;;;;10.3;8.9;;;;;;;13.9;77.33105;95371.11;;;;
2022/08/25 05:26:29;;;;;;;10.3;8.9;;;;;;;13.9;77.33105;95371.11;;;;
2022/08/25 05:27:31;;;;;;;10.3;8.9;;;;;;;13.9;77.33105;95371.11;;;;
2022/08/25 05:28:33;;;;;;;10.3;8.9;;;;;;;13.9;77.33105;95371.11;;;;
2022/08/25 05:29:33;;;;;;;14.5;11.25;;;;;;;14.15;77.23242;95369.16;;;;
2022/08/25 05:30:34;;;;;;;14.5;11.25;;;;;;;14.15;77.23242;95369.16;;;;
2022/08/25 05:31:37;;;;;;;14.5;11.25;;;;;;;14.15;77.23242;95369.16;;;;
2022/08/25 05:32:37;;;;;;;14.5;11.25;;;;;;;14.15;77.23242;95369.16;;;;
2022/08/25 05:33:38;;;;;;;14.5;11.25;;;;;;;14.15;77.23242;95369.16;;;;
2022/08/25 05:34:40;;;;;;;14.5;11.25;;;;;;;14.15;77.23242;95369.16;;;;
2022/08/25 05:35:40;;;;;;;14.5;11.25;;;;;;;14.15;77.23242;95369.16;;;;
2022/08/25 05:36:42;;;;;;;14.5;11.25;;;;;;;14.15;77.23242;95369.16;;;;
2022/08/25 05:37:42;;;;;;;14.5;11.25;;;;;;;14.15;77.23242;95369.16;;;;